Time;durP1;ratioP1;P1;durP2;ratioP2;P2;SDS_P1;SDS_P2;PMS_P1;PMS_P2;Temp;Humidity;BMP_temperature;BMP_pressure;BME280_temperature;BME280_humidity;BME280_pressure;Samples;Min_cycle;Max_cycle;Signal;HPM_P1;HPM_P2
2024/02/05 00:02:07;;;;;;;9.82;3.03;;;;;;;9.37;100.00;101609.75;5095607;28;20026;-74
2024/02/05 00:04:33;;;;;;;8.80;3.83;;;;;;;9.35;100.00;101617.09;5095942;28;20038;-74
2024/02/05 00:07:00;;;;;;;13.60;3.55;;;;;;;9.34;100.00;101614.53;5096204;28;20123;-74
2024/02/05 00:09:25;;;;;;;12.77;3.97;;;;;;;9.31;100.00;101617.53;5079476;28;20171;-74
2024/02/05 00:11:51;;;;;;;11.07;3.45;;;;;;;9.27;100.00;101617.00;5079515;28;20046;-74
2024/02/05 00:14:17;;;;;;;14.02;3.85;;;;;;;9.25;100.00;101616.28;5079398;28;20036;-74
2024/02/05 00:16:43;;;;;;;10.15;3.08;;;;;;;9.25;100.00;101619.81;5096009;28;20043;-74
2024/02/05 00:19:09;;;;;;;13.77;3.97;;;;;;;9.24;100.00;101615.44;5078926;28;20040;-74
2024/02/05 00:21:35;;;;;;;9.88;2.92;;;;;;;9.24;100.00;101609.22;5079014;28;20386;-75
2024/02/05 00:24:01;;;;;;;9.95;3.00;;;;;;;9.24;100.00;101604.72;5079262;28;20047;-74
2024/02/05 00:26:26;;;;;;;8.27;3.22;;;;;;;9.28;100.00;101602.56;5079010;28;20058;-74
2024/02/05 00:28:52;;;;;;;11.27;3.80;;;;;;;9.27;100.00;101589.31;5079487;28;20067;-74
2024/02/05 00:31:18;;;;;;;11.57;3.85;;;;;;;9.29;100.00;101589.97;5079274;28;20493;-74
2024/02/05 00:33:44;;;;;;;8.80;3.22;;;;;;;9.27;100.00;101581.25;5079171;28;20100;-74
2024/02/05 00:36:10;;;;;;;11.57;3.08;;;;;;;9.30;100.00;101578.28;5095956;28;20063;-74
2024/02/05 00:38:35;;;;;;;11.55;3.67;;;;;;;9.28;100.00;101574.88;5095874;28;20067;-74
2024/02/05 00:41:01;;;;;;;9.10;4.40;;;;;;;9.25;100.00;101581.41;5078866;28;20031;-74
2024/02/05 00:43:28;;;;;;;5.72;2.92;;;;;;;9.22;100.00;101579.84;5095958;28;20035;-74
2024/02/05 00:45:54;;;;;;;15.43;3.80;;;;;;;9.20;100.00;101584.50;5080022;28;20418;-74
2024/02/05 00:48:20;;;;;;;13.13;2.95;;;;;;;9.18;100.00;101578.47;5078872;28;20508;-74
2024/02/05 00:50:46;;;;;;;13.98;3.60;;;;;;;9.17;100.00;101576.75;5078649;28;20106;-74
2024/02/05 00:53:11;;;;;;;7.32;3.30;;;;;;;9.15;100.00;101573.38;5079013;28;20027;-74
2024/02/05 00:55:37;;;;;;;6.22;2.90;;;;;;;9.15;100.00;101572.53;5095279;28;20483;-74
2024/02/05 00:58:03;;;;;;;12.82;3.20;;;;;;;9.13;100.00;101556.59;5078968;28;20035;-74
2024/02/05 01:00:29;;;;;;;7.28;2.47;;;;;;;9.11;100.00;101558.56;5095546;28;20467;-74
2024/02/05 01:02:54;;;;;;;9.02;4.15;;;;;;;9.11;100.00;101560.41;5082716;28;20040;-74
2024/02/05 01:05:20;;;;;;;8.90;2.58;;;;;;;9.09;100.00;101549.81;5082737;28;20480;-74
2024/02/05 01:07:46;;;;;;;9.55;2.80;;;;;;;9.10;100.00;101550.66;5082510;28;20035;-74
2024/02/05 01:10:11;;;;;;;12.02;3.10;;;;;;;9.06;100.00;101542.06;5082761;28;20071;-76
2024/02/05 01:12:38;;;;;;;10.80;2.72;;;;;;;9.05;100.00;101534.16;5099338;28;20483;-74
2024/02/05 01:15:05;;;;;;;8.48;2.88;;;;;;;9.03;100.00;101532.47;5099423;28;20043;-74
2024/02/05 01:17:31;;;;;;;10.68;2.70;;;;;;;9.03;100.00;101523.59;5098646;28;20544;-74
2024/02/05 01:19:57;;;;;;;5.35;2.67;;;;;;;9.04;100.00;101527.94;5082619;28;20039;-74
2024/02/05 01:22:23;;;;;;;10.65;4.13;;;;;;;9.04;100.00;101522.59;5082570;28;20092;-74
2024/02/05 01:24:49;;;;;;;7.22;3.30;;;;;;;9.03;100.00;101521.75;5082206;28;20039;-74
2024/02/05 01:27:15;;;;;;;10.52;3.42;;;;;;;9.03;100.00;101520.91;5099046;28;20031;-74
2024/02/05 01:29:43;;;;;;;12.82;4.38;;;;;;;9.02;100.00;101521.88;5099069;28;20445;-74
2024/02/05 01:32:12;;;;;;;8.55;2.78;;;;;;;9.02;100.00;101521.88;5098722;28;20031;-74
2024/02/05 01:34:38;;;;;;;11.57;3.60;;;;;;;9.02;100.00;101516.50;5082686;28;20085;-75
2024/02/05 01:37:04;;;;;;;6.95;2.40;;;;;;;8.97;100.00;101527.72;5081670;28;20070;-74
2024/02/05 01:39:29;;;;;;;7.47;2.85;;;;;;;8.93;100.00;101509.38;5082306;28;20059;-74
2024/02/05 01:41:55;;;;;;;12.98;3.47;;;;;;;8.91;100.00;101506.81;5081740;28;20050;-74
2024/02/05 01:44:21;;;;;;;8.45;2.78;;;;;;;8.90;100.00;101517.72;5098714;28;20043;-74
2024/02/05 01:46:47;;;;;;;8.13;3.22;;;;;;;8.91;100.00;101505.97;5081654;28;20035;-75
2024/02/05 01:49:13;;;;;;;10.70;3.13;;;;;;;8.90;100.00;101504.28;5082010;28;20446;-74
2024/02/05 01:51:42;;;;;;;7.18;3.70;;;;;;;8.90;100.00;101496.25;5098812;28;20506;-74
2024/02/05 01:54:09;;;;;;;7.65;3.67;;;;;;;8.90;100.00;101491.72;5116030;28;20024;-74
2024/02/05 01:56:36;;;;;;;11.95;3.25;;;;;;;8.89;100.00;101482.00;5098724;28;20031;-74
2024/02/05 01:59:03;;;;;;;11.27;3.75;;;;;;;8.90;100.00;101488.22;5081666;28;20101;-74
2024/02/05 02:01:31;;;;;;;17.77;4.13;;;;;;;8.90;100.00;101483.69;5098857;28;20428;-74
2024/02/05 02:03:57;;;;;;;11.63;3.70;;;;;;;8.88;100.00;101479.44;5098492;28;20065;-74
2024/02/05 02:06:24;;;;;;;15.15;4.18;;;;;;;8.86;100.00;101476.91;5081722;28;20047;-74
2024/02/05 02:08:50;;;;;;;15.18;3.30;;;;;;;8.86;100.00;101459.97;5114825;28;20027;-74
2024/02/05 02:11:16;;;;;;;16.73;4.47;;;;;;;8.85;100.00;101455.63;5081463;28;20047;-74
2024/02/05 02:13:43;;;;;;;10.02;4.13;;;;;;;8.87;100.00;101461.69;5080468;28;20117;-74
2024/02/05 02:16:11;;;;;;;14.05;5.57;;;;;;;8.87;100.00;101456.31;5064962;28;20032;-74
2024/02/05 02:18:38;;;;;;;15.82;4.80;;;;;;;8.87;100.00;101453.63;5098315;28;20051;-74
2024/02/05 02:21:06;;;;;;;7.63;3.38;;;;;;;8.84;100.00;101440.50;5064617;28;20521;-74
2024/02/05 02:23:33;;;;;;;9.15;3.83;;;;;;;8.83;100.00;101439.66;5081326;28;20032;-74
2024/02/05 02:26:03;;;;;;;11.93;4.45;;;;;;;8.82;100.00;101445.19;5097763;28;20050;-74
2024/02/05 02:28:29;;;;;;;10.80;4.13;;;;;;;8.81;100.00;101444.31;5081587;28;20104;-74
2024/02/05 02:30:56;;;;;;;8.70;2.88;;;;;;;8.77;100.00;101434.91;5081170;28;20046;-74
2024/02/05 02:33:55;;;;;;;12.15;4.15;;;;;;;8.78;100.00;101437.41;5098130;28;20043;-74
2024/02/05 02:36:28;;;;;;;6.20;2.83;;;;;;;8.82;100.00;101437.16;5097114;28;20077;-74
2024/02/05 02:39:05;;;;;;;14.27;4.00;;;;;;;8.83;100.00;101426.25;5080925;28;20038;-74
2024/02/05 02:41:36;;;;;;;13.48;3.47;;;;;;;8.85;100.00;101428.81;5114581;28;20027;-74
2024/02/05 02:44:02;;;;;;;15.30;3.10;;;;;;;8.84;100.00;101411.88;5097875;28;20045;-74
2024/02/05 02:46:29;;;;;;;10.23;3.00;;;;;;;8.86;100.00;101417.06;5080663;28;20067;-74
2024/02/05 02:48:55;;;;;;;6.00;2.85;;;;;;;8.89;100.00;101414.94;5098706;28;20035;-74
2024/02/05 02:51:22;;;;;;;10.68;3.53;;;;;;;8.93;100.00;101408.28;5080897;28;20027;-74
2024/02/05 02:53:47;;;;;;;10.88;4.20;;;;;;;8.96;100.00;101409.81;5097117;28;20023;-74
2024/02/05 02:56:13;;;;;;;11.35;2.83;;;;;;;8.99;100.00;101401.47;5097094;28;20390;-74
2024/02/05 02:58:39;;;;;;;6.07;2.28;;;;;;;9.00;100.00;101408.53;5080592;28;20031;-74
2024/02/05 03:01:06;;;;;;;12.90;2.60;;;;;;;9.00;100.00;101403.19;5097775;28;20522;-74
2024/02/05 03:03:32;;;;;;;10.27;2.42;;;;;;;8.98;100.00;101402.47;5080572;28;20104;-74
2024/02/05 03:05:58;;;;;;;8.30;2.90;;;;;;;8.95;100.00;101394.72;5080187;28;20471;-74
2024/02/05 03:08:24;;;;;;;15.98;4.10;;;;;;;8.94;100.00;101388.50;5080617;28;20028;-74
2024/02/05 03:10:49;;;;;;;10.63;3.33;;;;;;;8.91;100.00;101382.59;5080249;28;20463;-74
2024/02/05 03:13:16;;;;;;;6.32;2.38;;;;;;;8.90;100.00;101381.75;5080338;28;20115;-74
2024/02/05 03:15:42;;;;;;;10.10;2.75;;;;;;;8.87;100.00;101378.56;5096464;28;20028;-74
2024/02/05 03:18:09;;;;;;;9.65;2.40;;;;;;;8.79;100.00;101360.53;5080073;28;20045;-74
2024/02/05 03:20:37;;;;;;;5.75;2.40;;;;;;;8.62;100.00;101355.94;5080128;28;20043;-74
2024/02/05 03:23:05;;;;;;;9.32;2.80;;;;;;;8.47;100.00;101344.88;5096901;28;20454;-74
2024/02/05 03:25:35;;;;;;;10.68;3.03;;;;;;;8.37;100.00;101340.34;5113557;28;20063;-74
2024/02/05 03:28:01;;;;;;;10.43;3.15;;;;;;;8.40;100.00;101336.56;5080320;28;20059;-74
2024/02/05 03:30:35;;;;;;;14.55;3.15;;;;;;;8.45;100.00;101342.34;5079941;28;20038;-74
2024/02/05 03:33:01;;;;;;;5.13;1.73;;;;;;;8.49;100.00;101340.19;5096426;28;20023;-74
2024/02/05 03:35:28;;;;;;;11.82;2.40;;;;;;;8.55;100.00;101342.31;5079797;28;20047;-74
2024/02/05 03:37:54;;;;;;;9.95;2.40;;;;;;;8.60;100.00;101329.31;5079837;28;20042;-74
2024/02/05 03:40:21;;;;;;;5.55;1.77;;;;;;;8.62;100.00;101329.97;5079762;28;20043;-74
2024/02/05 03:42:50;;;;;;;9.18;2.45;;;;;;;8.66;100.00;101323.34;5096674;28;20084;-74
2024/02/05 03:45:17;;;;;;;8.73;2.40;;;;;;;8.69;100.00;101314.16;5079795;28;20104;-74
2024/02/05 03:47:44;;;;;;;7.85;1.73;;;;;;;8.73;100.00;101327.09;5095916;28;20364;-74
2024/02/05 03:50:12;;;;;;;5.05;1.83;;;;;;;8.74;100.00;101307.34;5113181;28;20034;-74
2024/02/05 03:52:43;;;;;;;3.88;1.40;;;;;;;8.83;100.00;101305.59;5080053;28;20028;-74
2024/02/05 03:55:10;;;;;;;4.15;1.23;;;;;;;8.93;100.00;101306.38;5096502;28;20414;-74
2024/02/05 03:57:39;;;;;;;5.18;0.98;;;;;;;8.98;100.00;101309.44;5113327;28;20074;-74
2024/02/05 04:00:08;;;;;;;9.57;1.23;;;;;;;9.03;100.00;101301.78;5079217;28;20047;-75
2024/02/05 04:02:37;;;;;;;2.38;1.13;;;;;;;9.03;100.00;101296.41;5079922;28;20031;-74
2024/02/05 04:05:03;;;;;;;4.40;1.10;;;;;;;9.01;100.00;101302.94;5079101;28;20054;-74
2024/02/05 04:07:29;;;;;;;3.40;1.02;;;;;;;8.97;100.00;101291.66;5079293;28;20035;-75
2024/02/05 04:09:54;;;;;;;5.82;2.95;;;;;;;8.87;100.00;101285.53;5079084;28;20364;-74
2024/02/05 04:12:20;;;;;;;3.83;1.20;;;;;;;8.85;100.00;101289.34;5079163;28;20077;-74
2024/02/05 04:14:46;;;;;;;3.45;0.93;;;;;;;8.87;100.00;101290.06;5079455;28;20542;-74
2024/02/05 04:17:11;;;;;;;2.83;1.00;;;;;;;8.88;100.00;101283.69;5079278;28;20031;-74
2024/02/05 04:19:43;;;;;;;2.08;0.82;;;;;;;8.87;100.00;101287.38;5079073;28;20047;-74
2024/02/05 04:22:12;;;;;;;4.35;1.65;;;;;;;8.82;100.00;101282.44;5112691;28;20023;-74
2024/02/05 04:24:39;;;;;;;1.63;0.80;;;;;;;8.75;100.00;101281.38;5112520;28;20039;-74
2024/02/05 04:27:06;;;;;;;4.10;1.02;;;;;;;8.68;100.00;101286.50;5079190;28;20028;-75
2024/02/05 04:29:33;;;;;;;2.60;0.73;;;;;;;8.66;100.00;101277.75;5079229;28;20522;-74
2024/02/05 04:31:59;;;;;;;0.65;0.57;;;;;;;8.62;100.00;101272.84;5079062;28;20177;-74
2024/02/05 04:34:25;;;;;;;2.20;0.68;;;;;;;8.57;100.00;101270.59;5079098;28;20038;-74
2024/02/05 04:36:53;;;;;;;2.20;1.00;;;;;;;8.56;100.00;101268.94;5078611;28;20122;-74
2024/02/05 04:39:20;;;;;;;1.70;0.77;;;;;;;8.56;100.00;101268.94;5096080;28;20041;-74
2024/02/05 04:41:45;;;;;;;0.68;0.60;;;;;;;8.56;100.00;101266.25;5078827;28;20027;-74
2024/02/05 04:44:11;;;;;;;2.33;0.80;;;;;;;8.56;100.00;101261.72;5079097;28;20057;-74
2024/02/05 04:46:37;;;;;;;2.15;0.70;;;;;;;8.61;100.00;101265.81;5079064;28;20383;-74
2024/02/05 04:49:02;;;;;;;0.75;0.60;;;;;;;8.61;100.00;101258.59;5078812;28;20027;-74
2024/02/05 04:51:28;;;;;;;2.20;0.70;;;;;;;8.65;100.00;101257.28;5078863;28;20126;-74
2024/02/05 04:53:57;;;;;;;2.72;0.77;;;;;;;8.71;100.00;101258.53;5078917;28;20031;-74
2024/02/05 04:56:23;;;;;;;0.50;0.50;;;;;;;8.76;100.00;101257.09;5078598;28;20032;-74
2024/02/05 04:58:49;;;;;;;0.68;0.55;;;;;;;8.83;100.00;101243.06;5078728;28;20437;-74
2024/02/05 05:01:15;;;;;;;0.63;0.60;;;;;;;8.87;100.00;101245.31;5078774;28;20028;-74
2024/02/05 05:03:40;;;;;;;0.82;0.60;;;;;;;8.94;100.00;101249.03;5078853;28;20054;-74
2024/02/05 05:06:06;;;;;;;0.93;0.70;;;;;;;8.95;100.00;101225.75;5078860;28;20043;-74
2024/02/05 05:08:33;;;;;;;1.80;0.57;;;;;;;8.91;100.00;101238.63;5078547;28;20173;-74
2024/02/05 05:10:58;;;;;;;2.67;1.05;;;;;;;8.89;100.00;101226.34;5078744;28;20036;-74
2024/02/05 05:13:24;;;;;;;3.00;0.70;;;;;;;8.88;100.00;101222.84;5078940;28;20051;-74
2024/02/05 05:15:50;;;;;;;2.58;1.00;;;;;;;8.89;100.00;101229.91;5078754;28;20050;-74
2024/02/05 05:18:16;;;;;;;2.10;0.77;;;;;;;8.93;100.00;101230.44;5078425;28;20023;-74
2024/02/05 05:20:42;;;;;;;2.80;0.80;;;;;;;8.88;100.00;101225.53;5078272;28;20032;-74
2024/02/05 05:23:08;;;;;;;3.25;0.80;;;;;;;8.80;100.00;101226.28;5078642;28;20135;-74
2024/02/05 05:25:35;;;;;;;1.48;0.70;;;;;;;8.70;100.00;101224.66;5094930;28;20135;-74
2024/02/05 05:28:03;;;;;;;1.75;0.80;;;;;;;8.60;100.00;101208.69;5094912;28;20042;-74
2024/02/05 05:30:28;;;;;;;1.33;0.75;;;;;;;8.55;100.00;101211.81;5111993;28;20038;-74
2024/02/05 05:32:54;;;;;;;2.28;0.60;;;;;;;8.52;100.00;101200.53;5078776;28;20035;-75
2024/02/05 05:35:20;;;;;;;4.38;0.80;;;;;;;8.50;100.00;101199.84;5078390;28;20537;-75
2024/02/05 05:37:46;;;;;;;2.05;0.70;;;;;;;8.48;100.00;101193.78;5078494;28;20407;-75
2024/02/05 05:40:12;;;;;;;3.25;0.90;;;;;;;8.46;100.00;101191.25;5094670;28;20031;-74
2024/02/05 05:42:38;;;;;;;2.33;0.80;;;;;;;8.45;100.00;101186.91;5078329;28;20080;-74
2024/02/05 05:45:04;;;;;;;4.20;1.00;;;;;;;8.46;100.00;101180.53;5094730;28;20528;-74
2024/02/05 05:47:30;;;;;;;7.13;1.10;;;;;;;8.47;100.00;101184.91;5078472;28;20035;-75
2024/02/05 05:49:55;;;;;;;7.32;1.45;;;;;;;8.47;100.00;101182.25;5081899;28;20127;-74
2024/02/05 05:52:21;;;;;;;1.92;0.95;;;;;;;8.50;100.00;101189.13;5081892;28;20521;-74
2024/02/05 05:54:47;;;;;;;2.17;1.00;;;;;;;8.50;100.00;101186.47;5081898;28;20032;-74
2024/02/05 05:57:14;;;;;;;5.15;1.10;;;;;;;8.52;100.00;101179.09;5081550;28;20394;-75
2024/02/05 05:59:41;;;;;;;3.80;1.33;;;;;;;8.52;100.00;101176.41;5081989;28;20115;-74
2024/02/05 06:02:07;;;;;;;4.05;0.90;;;;;;;8.53;100.00;101183.47;5081477;28;20612;-75
2024/02/05 06:04:36;;;;;;;5.68;1.20;;;;;;;8.54;100.00;101171.75;5081823;28;20047;-74
2024/02/05 06:07:06;;;;;;;2.72;0.73;;;;;;;8.53;100.00;101170.06;5081783;28;20459;-75
2024/02/05 06:09:33;;;;;;;1.70;1.08;;;;;;;8.58;100.00;101173.13;5115493;28;20046;-74
2024/02/05 06:11:58;;;;;;;2.95;1.45;;;;;;;8.62;100.00;101166.44;5081824;28;20547;-74
2024/02/05 06:14:24;;;;;;;4.88;1.40;;;;;;;8.66;100.00;101173.22;5098111;28;20107;-74
2024/02/05 06:16:50;;;;;;;2.85;1.30;;;;;;;8.69;100.00;101169.38;5082544;28;20031;-74
2024/02/05 06:19:15;;;;;;;5.15;1.63;;;;;;;8.72;100.00;101169.91;5081651;28;20460;-75
2024/02/05 06:21:41;;;;;;;5.50;1.70;;;;;;;8.78;100.00;101149.66;5081293;28;20024;-74
2024/02/05 06:24:07;;;;;;;4.60;1.63;;;;;;;8.83;100.00;101146.53;5098249;28;20035;-74
2024/02/05 06:26:33;;;;;;;5.15;1.55;;;;;;;8.85;100.00;101145.38;5081424;28;20493;-74
2024/02/05 06:28:58;;;;;;;3.90;1.17;;;;;;;8.87;100.00;101138.03;5081444;28;20390;-73
2024/02/05 06:31:24;;;;;;;4.35;1.73;;;;;;;8.88;100.00;101136.19;5081155;28;20092;-74
2024/02/05 06:33:51;;;;;;;7.72;2.30;;;;;;;8.88;100.00;101130.81;5098239;28;20033;-74
2024/02/05 06:36:16;;;;;;;4.25;1.30;;;;;;;8.87;100.00;101139.88;5081365;28;20123;-74
2024/02/05 06:38:42;;;;;;;4.90;1.60;;;;;;;8.89;100.00;101137.84;5081243;28;20039;-74
2024/02/05 06:41:08;;;;;;;5.15;1.38;;;;;;;8.88;100.00;101138.88;5097495;28;20505;-74
2024/02/05 06:43:35;;;;;;;2.55;1.17;;;;;;;8.87;100.00;101140.72;5080944;28;20036;-75
2024/02/05 06:46:02;;;;;;;5.65;1.25;;;;;;;8.85;100.00;101137.34;5081423;28;20405;-74
2024/02/05 06:48:31;;;;;;;2.92;1.40;;;;;;;8.85;100.00;101137.34;5081132;28;20036;-74
2024/02/05 06:50:57;;;;;;;4.63;1.25;;;;;;;8.84;100.00;101116.91;5081361;28;20040;-74
2024/02/05 06:53:22;;;;;;;5.93;1.10;;;;;;;8.85;100.00;101121.25;5080553;28;20043;-74
2024/02/05 06:55:48;;;;;;;5.15;1.23;;;;;;;8.82;100.00;101110.00;5080759;28;20471;-74
2024/02/05 06:58:14;;;;;;;4.40;1.25;;;;;;;8.76;100.00;101112.31;5080770;28;20035;-74
2024/02/05 07:00:40;;;;;;;3.25;1.20;;;;;;;8.80;100.00;101110.97;5079800;28;20027;-74
2024/02/05 07:03:06;;;;;;;5.72;1.33;;;;;;;8.87;100.00;101110.38;5080350;28;20027;-74
2024/02/05 07:05:32;;;;;;;8.18;1.75;;;;;;;8.90;100.00;101096.66;5080692;28;20031;-74
2024/02/05 07:07:58;;;;;;;3.58;1.05;;;;;;;8.95;100.00;101099.72;5096900;28;20388;-75
2024/02/05 07:10:24;;;;;;;3.80;1.40;;;;;;;8.98;100.00;101094.03;5097506;28;20112;-74
2024/02/05 07:12:50;;;;;;;5.25;1.55;;;;;;;9.00;100.00;101086.69;5080435;28;20472;-74
2024/02/05 07:15:16;;;;;;;7.20;1.50;;;;;;;9.01;100.00;101082.97;5096992;28;20028;-74
2024/02/05 07:17:43;;;;;;;4.97;1.70;;;;;;;9.05;100.00;101088.84;5096552;28;20490;-75
2024/02/05 07:20:09;;;;;;;7.75;1.63;;;;;;;9.05;100.00;101088.84;5113450;28;20040;-75
2024/02/05 07:22:36;;;;;;;4.07;1.65;;;;;;;9.05;100.00;101087.03;5097420;28;20485;-74
2024/02/05 07:25:02;;;;;;;5.00;2.00;;;;;;;9.03;100.00;101084.50;5080048;28;20519;-74
2024/02/05 07:27:28;;;;;;;7.30;1.88;;;;;;;9.03;100.00;101089.03;5096505;28;20073;-74
2024/02/05 07:29:53;;;;;;;5.18;1.45;;;;;;;9.02;100.00;101079.28;5096779;28;20031;-75
2024/02/05 07:32:19;;;;;;;3.97;1.50;;;;;;;9.06;100.00;101074.47;5079497;28;20076;-75
2024/02/05 07:34:46;;;;;;;7.60;2.13;;;;;;;9.08;100.00;101080.53;5080078;28;20062;-74
2024/02/05 07:37:12;;;;;;;10.10;1.98;;;;;;;9.08;100.00;101076.00;5113479;28;20391;-74
2024/02/05 07:39:37;;;;;;;5.72;1.88;;;;;;;9.09;100.00;101080.34;5079928;28;20035;-74
2024/02/05 07:42:04;;;;;;;6.60;1.92;;;;;;;9.13;100.00;101076.38;5079579;28;20120;-76
2024/02/05 07:44:29;;;;;;;6.78;2.13;;;;;;;9.16;100.00;101083.25;5096531;28;20042;-74
2024/02/05 07:46:55;;;;;;;6.57;1.80;;;;;;;9.17;100.00;101074.19;5079637;28;20035;-74
2024/02/05 07:49:22;;;;;;;4.57;1.17;;;;;;;9.18;100.00;101084.78;5079817;28;20031;-74
2024/02/05 07:51:49;;;;;;;5.28;1.70;;;;;;;9.22;100.00;101085.28;5096291;28;20487;-74
2024/02/05 07:54:15;;;;;;;9.52;2.58;;;;;;;9.19;100.00;101078.41;5096733;28;20042;-74
2024/02/05 07:56:42;;;;;;;9.75;2.40;;;;;;;9.27;100.00;101076.78;5079476;28;20039;-74
2024/02/05 07:59:08;;;;;;;12.30;2.92;;;;;;;9.31;100.00;101087.00;5079333;28;20379;-74
2024/02/05 08:01:34;;;;;;;7.10;1.98;;;;;;;9.31;100.00;101081.63;5113234;28;20097;-74
2024/02/05 08:04:00;;;;;;;4.63;1.70;;;;;;;9.31;100.00;101083.50;5079463;28;20379;-74
2024/02/05 08:06:28;;;;;;;8.52;1.77;;;;;;;9.35;100.00;101084.88;5079255;28;20082;-74
2024/02/05 08:08:55;;;;;;;6.43;1.83;;;;;;;9.36;100.00;101078.47;5096796;28;20042;-74
2024/02/05 08:11:21;;;;;;;9.95;2.30;;;;;;;9.39;100.00;101072.78;5095292;28;20059;-74
2024/02/05 08:13:47;;;;;;;8.43;2.08;;;;;;;9.43;100.00;101080.38;5096148;28;20020;-74
2024/02/05 08:16:13;;;;;;;9.52;2.30;;;;;;;9.45;100.00;101078.38;5079407;28;20031;-74
2024/02/05 08:18:38;;;;;;;6.07;2.33;;;;;;;9.48;100.00;101077.22;5095398;28;20118;-75
2024/02/05 08:21:04;;;;;;;9.55;2.28;;;;;;;9.50;100.00;101068.97;5078807;28;20035;-74
2024/02/05 08:23:30;;;;;;;8.20;1.85;;;;;;;9.52;100.00;101080.41;5063178;28;20116;-74
2024/02/05 08:25:56;;;;;;;10.15;2.38;;;;;;;9.56;100.00;101071.88;5095560;28;20531;-74
2024/02/05 08:28:22;;;;;;;10.23;3.22;;;;;;;9.58;100.00;101055.59;5078812;28;20038;-75
2024/02/05 08:30:47;;;;;;;9.38;2.28;;;;;;;9.57;100.00;101062.81;5079212;28;20065;-74
2024/02/05 08:33:13;;;;;;;10.00;1.95;;;;;;;9.56;100.00;101055.78;5078863;28;20027;-74
2024/02/05 08:35:40;;;;;;;5.55;1.77;;;;;;;9.56;100.00;101052.25;5079060;28;20049;-74
2024/02/05 08:38:09;;;;;;;6.55;2.40;;;;;;;9.57;100.00;101052.06;5112511;28;20028;-74
2024/02/05 08:40:35;;;;;;;5.40;2.35;;;;;;;9.57;100.00;101048.56;5095257;28;20024;-74
2024/02/05 08:43:01;;;;;;;13.88;3.55;;;;;;;9.58;100.00;101047.53;5079067;28;20027;-74
2024/02/05 08:45:27;;;;;;;14.18;3.00;;;;;;;9.58;100.00;101063.63;5078831;28;20056;-74
2024/02/05 08:47:53;;;;;;;13.52;2.92;;;;;;;9.60;100.00;101050.91;5095535;28;20057;-74
2024/02/05 08:50:22;;;;;;;10.25;3.13;;;;;;;9.62;100.00;101059.66;5078662;28;20487;-74
2024/02/05 08:52:48;;;;;;;5.13;2.30;;;;;;;9.64;100.00;101046.91;5079040;28;20067;-74
2024/02/05 08:55:14;;;;;;;5.65;1.95;;;;;;;9.68;100.00;101041.06;5095067;28;20034;-74
2024/02/05 08:57:40;;;;;;;8.25;1.88;;;;;;;9.72;100.00;101038.03;5078491;28;20127;-75
2024/02/05 09:00:10;;;;;;;7.22;2.88;;;;;;;9.76;100.00;101044.75;5078218;28;20549;-74
2024/02/05 09:02:36;;;;;;;7.72;3.17;;;;;;;9.82;100.00;101031.53;5079004;28;20028;-74
2024/02/05 09:05:02;;;;;;;4.30;2.33;;;;;;;9.88;100.00;101038.06;5078609;28;20035;-74
2024/02/05 09:07:29;;;;;;;9.60;2.97;;;;;;;9.95;100.00;101030.19;5079721;28;20035;-74
2024/02/05 09:09:56;;;;;;;10.82;3.30;;;;;;;10.03;100.00;101028.38;5095939;28;20040;-74
2024/02/05 09:12:22;;;;;;;12.18;3.35;;;;;;;10.10;100.00;101025.84;5095101;28;20031;-74
2024/02/05 09:14:51;;;;;;;9.23;3.58;;;;;;;10.15;100.00;101014.59;5112133;28;20028;-73
2024/02/05 09:17:17;;;;;;;13.23;3.05;;;;;;;10.18;100.00;101019.66;5094127;28;20028;-74
2024/02/05 09:19:43;;;;;;;13.70;3.38;;;;;;;10.22;100.00;101012.94;5078325;28;20036;-74
2024/02/05 09:22:09;;;;;;;7.93;3.13;;;;;;;10.24;100.00;101024.34;5078966;28;20070;-74
2024/02/05 09:24:35;;;;;;;9.73;3.30;;;;;;;10.26;100.00;101014.28;5082444;28;20036;-74
2024/02/05 09:27:01;;;;;;;8.27;3.03;;;;;;;10.27;100.00;101011.47;5082467;28;20031;-74
2024/02/05 09:29:26;;;;;;;10.30;3.67;;;;;;;10.30;100.00;101015.66;5099106;28;20031;-75
2024/02/05 09:31:53;;;;;;;12.60;4.85;;;;;;;10.28;100.00;101014.97;5082357;28;20070;-74
2024/02/05 09:34:20;;;;;;;7.68;2.70;;;;;;;10.29;100.00;101009.47;5082256;28;20035;-74
2024/02/05 09:36:46;;;;;;;7.28;3.22;;;;;;;10.34;100.00;101012.44;5081334;28;20454;-75
2024/02/05 09:39:11;;;;;;;8.48;3.30;;;;;;;10.41;100.00;101001.88;5065504;28;20047;-74
2024/02/05 09:41:38;;;;;;;12.05;2.92;;;;;;;10.38;100.00;101004.91;5098583;28;20411;-74
2024/02/05 09:44:04;;;;;;;10.05;3.88;;;;;;;10.33;100.00;101001.88;5099047;28;20063;-74
2024/02/05 09:46:32;;;;;;;5.47;2.80;;;;;;;10.34;100.00;101006.25;5081977;28;20497;-75
2024/02/05 09:49:03;;;;;;;8.85;2.80;;;;;;;10.26;100.00;101008.91;5115825;28;20050;-74
2024/02/05 09:51:29;;;;;;;11.05;4.28;;;;;;;10.19;100.00;100998.00;5115439;28;20047;-74
2024/02/05 09:53:58;;;;;;;10.13;4.00;;;;;;;10.15;100.00;100993.94;5098431;28;20028;-74
2024/02/05 09:56:27;;;;;;;11.55;3.35;;;;;;;10.07;100.00;101000.16;5098189;28;20055;-74
2024/02/05 09:58:53;;;;;;;9.70;3.50;;;;;;;9.96;100.00;101000.47;5098990;28;20042;-74
2024/02/05 10:01:26;;;;;;;15.07;3.22;;;;;;;9.92;100.00;100996.44;5081626;28;20027;-74
2024/02/05 10:03:53;;;;;;;8.32;3.13;;;;;;;9.94;100.00;100999.81;5082046;28;20475;-74
2024/02/05 10:06:21;;;;;;;8.77;3.45;;;;;;;9.99;100.00;101005.53;5081524;28;20043;-74
2024/02/05 10:08:56;;;;;;;7.10;3.53;;;;;;;10.04;100.00;100997.81;5082215;28;20047;-74
2024/02/05 10:11:22;;;;;;;13.35;3.70;;;;;;;10.13;100.00;100993.25;5098189;28;20058;-74
2024/02/05 10:13:48;;;;;;;8.68;3.08;;;;;;;10.20;100.00;100994.28;5098314;28;20028;-74
2024/02/05 10:16:14;;;;;;;12.65;3.42;;;;;;;10.26;100.00;100998.16;5081655;28;20042;-74
2024/02/05 10:18:40;;;;;;;9.13;3.05;;;;;;;10.29;100.00;100993.31;5081493;28;20032;-74
2024/02/05 10:21:05;;;;;;;13.07;4.07;;;;;;;10.33;100.00;101000.03;5081363;28;20472;-74
2024/02/05 10:23:31;;;;;;;10.52;3.72;;;;;;;10.35;100.00;100989.13;5098108;28;20067;-74
2024/02/05 10:25:57;;;;;;;10.45;3.97;;;;;;;10.39;100.00;100987.75;5081414;28;20108;-74
2024/02/05 10:28:23;;;;;;;9.00;2.88;;;;;;;10.45;100.00;100988.94;5098074;28;20061;-74
2024/02/05 10:30:51;;;;;;;12.75;4.15;;;;;;;10.46;100.00;101002.22;5082169;28;20455;-74
2024/02/05 10:33:20;;;;;;;13.25;3.65;;;;;;;10.54;100.00;100990.63;5098433;28;20028;-74
2024/02/05 10:35:45;;;;;;;12.00;3.70;;;;;;;10.56;100.00;100993.97;5097535;28;20072;-74
2024/02/05 10:38:11;;;;;;;7.47;3.53;;;;;;;10.57;100.00;100985.72;5080798;28;20044;-74
2024/02/05 10:40:38;;;;;;;12.18;4.00;;;;;;;10.66;100.00;100983.03;5080719;28;20059;-74
2024/02/05 10:43:04;;;;;;;9.63;3.72;;;;;;;10.70;100.00;100973.63;5080315;28;20126;-74
2024/02/05 10:45:31;;;;;;;11.95;3.55;;;;;;;10.80;100.00;100979.66;5114460;28;20027;-74
2024/02/05 10:47:57;;;;;;;11.32;3.75;;;;;;;10.85;100.00;100979.97;5080797;28;20137;-74
2024/02/05 10:50:23;;;;;;;9.77;4.63;;;;;;;10.88;100.00;100962.66;5080969;28;20036;-74
2024/02/05 10:52:52;;;;;;;13.52;4.18;;;;;;;10.97;100.00;100981.25;5080803;28;20028;-74
2024/02/05 10:55:18;;;;;;;10.57;4.57;;;;;;;11.04;100.00;100970.66;5080280;28;20032;-74
2024/02/05 10:57:46;;;;;;;16.30;6.05;;;;;;;11.12;100.00;100959.88;5080297;28;20111;-74
2024/02/05 11:00:13;;;;;;;10.20;5.40;;;;;;;11.20;100.00;100975.16;5097212;28;20027;-75
2024/02/05 11:02:55;;;;;;;9.95;3.92;;;;;;;11.28;100.00;100969.72;5097469;28;20489;-74
2024/02/05 11:05:22;;;;;;;9.90;3.45;;;;;;;11.31;100.00;100963.16;5080168;28;20262;-74
2024/02/05 11:08:21;;;;;;;7.47;3.22;;;;;;;11.33;100.00;100972.72;5080175;28;20043;-74
2024/02/05 11:10:49;;;;;;;15.30;3.92;;;;;;;11.37;100.00;100976.72;5069005;28;20515;-74
2024/02/05 11:13:29;;;;;;;6.15;3.00;;;;;;;11.45;100.00;100965.91;5097219;28;20118;-74
2024/02/05 11:15:56;;;;;;;12.55;4.28;;;;;;;11.51;100.00;100967.09;5096594;28;20032;-74
2024/02/05 11:18:27;;;;;;;10.05;3.03;;;;;;;11.55;100.00;100956.78;5096631;28;20066;-74
2024/02/05 11:20:54;;;;;;;16.52;5.70;;;;;;;11.60;100.00;100949.03;5080072;28;20039;-73